Weather at Generalissimo Francisco de Miranda Air Base

Public forecast

Using degrees Celsius for public forecast. Weather courtesy of forecast.io.

Current aviation weather report (METAR) for Generalissimo Francisco de Miranda Air Base

Report is more than 6 hours old.

Retrieved 2020/12/18 23:02 UTC (1 month ago):

SVFM 182302Z AUTO 12004KT NCD 24/16 Q1014

Closest aviation forecast (TAF) to Generalissimo Francisco de Miranda Air Base

Closest forecast is Simón Bolívar International Airport, 11.2 nm (20.7 km) NW. Retrieved 2021/01/28 18:03 UTC (0 seconds ago):

TAF SVMI 280400Z 2818/2918 25009KT 9999 SCT016 TX31/2818Z TN25/2808Z BECMG 2818/2822 02005KT 9999 BKN016